Weather observations for the past three days for
Kingman, Kingman Airport
Imperial (Metric)
Date Time (mst) Wind (mph) Vis. (mi.) Weather Sky Cond. Temperature (ºF) Relative Humidity Wind Chill (°F) Heat Index (°F) Pressure Precipitation (in)
Air Dwpt 6 hour altimeter (in) sea level (mb) 1 hr 3 hr 6 hr
Max. Min.
07 12:51 N 10 G 22 10.00 Fair CLR 82 17.1 9% 80 30.02 1010.4
07 11:51 NW 13 G 22 10.00 Fair CLR 80.1 18 10% 78 30.04 1011.2
07 10:51 Calm 10.00 Fair CLR 79 23 79 48 12% 78 30.05 1011.8
07 09:51 Calm 10.00 Fair CLR 73.9 23 15% 30.07 1012.3
07 08:51 N 6 10.00 Fair CLR 70 21 16% 30.08 1012.7
07 07:51 N 5 10.00 Fair CLR 66.9 19 16% 30.08 1012.5
07 06:51 E 7 10.00 Fair CLR 60.1 21.9 23% 30.08 1012.6
07 05:51 S 6 10.00 Fair CLR 50 18 28% 48 30.07 1012.8
07 04:51 E 3 10.00 Fair CLR 48.9 21.9 59 48.9 35% 30.06 1012.7
07 03:51 S 8 10.00 Fair CLR 52 25 35% 30.06 1012.4
07 02:51 Calm 10.00 Fair CLR 51.1 28 41% 30.06 1012.7
07 01:51 S 6 10.00 Fair CLR 51.1 25 36% 30.07 1013.0
07 00:51 S 7 10.00 Fair CLR 55.9 27 33% 30.06 1012.7
06 23:51 SW 3 10.00 Fair CLR 57 26.1 30% 30.06 1012.5
06 22:51 S 5 10.00 Fair CLR 59 27 79 59 29% 30.04 1011.8
06 21:51 S 3 10.00 Fair CLR 62.1 27 26% 30.03 1011.5
06 20:51 Calm 10.00 Fair CLR 64.9 28 25% 30.02 1010.9
06 19:51 N 7 10.00 Fair CLR 72 28 19% 29.99 1010.0
06 18:51 N 10 10.00 Fair CLR 77 28 16% 77 29.98 1009.6
06 17:51 N 12 10.00 Fair CLR 78.1 25 14% 77 29.98 1009.8
06 16:51 Calm 10.00 Fair CLR 78.1 24.1 80.1 68 13% 77 29.97 1009.7
06 15:51 Calm 10.00 Fair CLR 77 26.1 15% 76 29.99 1010.1
06 14:51 N 9 10.00 Fair CLR 75.9 28.9 18% 76 30 1010.5
06 13:51 NW 10 10.00 Fair CLR 75 30.9 20% 76 30.03 1011.4
06 12:51 Calm 10.00 Fair CLR 72 32 23% 30.04 1011.9
06 11:51 SW 13 G 17 10.00 Fair CLR 70 30.9 23% 30.05 1012.6
06 10:51 SW 10 G 20 10.00 Fair CLR 68 30.9 68 46.9 25% 30.06 1012.8
06 09:51 SW 13 10.00 Fair CLR 66 30.9 27% 30.05 1012.7
06 08:51 W 10 10.00 Fair CLR 64 32 30% 30.05 1012.7
06 07:51 SW 3 10.00 Fair CLR 60.1 32 35% 30.04 1012.3
06 06:51 SE 7 10.00 Fair CLR 54 30.9 42% 30.03 1012.2
06 05:51 S 6 10.00 Fair CLR 46.9 28.9 50% 45 30.01 1011.7
06 04:51 SE 9 10.00 Fair CLR 48 28.9 55.9 46 48% 44 30 1011.3
06 03:51 S 3 10.00 Fair CLR 48 28 46% 29.99 1011.0
06 02:51 Calm 10.00 Fair CLR 53.1 28 38% 29.98 1010.4
06 01:51 Calm 10.00 Fair CLR 52 28 40% 29.97 1010.1
06 00:51 SW 9 10.00 Fair CLR 54 28 37% 29.97 1009.8
05 23:51 SW 10 10.00 Fair CLR 54 27 35% 29.96 1009.6
05 22:51 S 10 10.00 Fair CLR 55.9 27 66 55.9 33% 29.95 1009.3
05 21:51 S 10 10.00 Fair CLR 55.9 27 33% 29.94 1009.2
05 20:51 SW 10 10.00 Fair CLR 57.9 27 31% 29.92 1008.4
05 19:51 SW 12 10.00 Fair CLR 61 26.1 26% 29.89 1007.5
05 18:51 SW 13 10.00 Fair CLR 64 28 26% 29.87 1006.6
05 17:51 SW 16 G 22 10.00 Fair CLR 64.9 28 25% 29.86 1006.4
05 16:51 SW 17 G 30 10.00 Partly Cloudy SCT085 66 28.9 66.9 61 25% 29.85 1005.9
05 15:51 SW 16 G 37 10.00 Partly Cloudy SCT085 66 28 24% 29.85 1005.9
05 14:51 W 18 G 36 10.00 Partly Cloudy SCT080 64.9 28 25% 29.85 1006.2
05 13:51 W 20 G 31 10.00 Fair CLR 64.9 30 27% 29.87 1006.5
05 12:51 SW 22 G 36 10.00 A Few Clouds and Breezy FEW070 64.9 30 27% 29.88 1006.7
05 11:51 SW 18 G 37 10.00 Fair CLR 63 33.1 33% 29.88 1007.1
05 10:51 SW 18 G 32 10.00 A Few Clouds FEW060 62.1 34 63 46.9 35% 29.89 1007.4
05 09:51 W 12 G 26 10.00 Fair CLR 60.1 34 38% 29.88 1006.8
05 08:51 SW 13 G 18 10.00 Fair CLR 57.9 33.1 39% 29.88 1006.8
05 07:51 W 6 10.00 Fair CLR 55.9 33.1 42% 29.88 1007.0
05 06:51 SE 14 G 21 10.00 Fair CLR 54 35.1 49% 29.87 1006.7
05 05:51 E 10 10.00 Fair CLR 48 33.1 56% 44 29.86 1006.6
05 04:51 SE 8 10.00 Fair CLR 48.9 33.1 55 48.9 55% 46 29.86 1006.2
05 03:51 S 10 10.00 Fair CLR 52 34 50% 29.86 1006.1
05 02:51 SW 10 10.00 Fair CLR 51.1 33.1 50% 29.86 1006.3
05 01:51 SW 10 10.00 Fair CLR 54 34 47% 29.88 1006.8
05 00:51 SW 14 10.00 Fair CLR 55 33.1 44% 29.89 1006.9
04 23:51 S 14 10.00 Fair CLR 54 30.9 42% 29.89 1007.3
04 22:51 SW 12 10.00 Fair CLR 55 30 68 55 38% 29.89 1007.3
04 21:51 S 12 10.00 Fair CLR 59 27 29% 29.89 1007.1
04 20:51 S 13 10.00 Fair CLR 61 23 23% 29.89 1006.7
04 19:51 S 16 10.00 Fair CLR 63 21 20% 29.87 1006.0
04 17:51 S 18 10.00 Fair CLR 66 23 19% 29.85 1005.5
04 16:51 SW 15 G 31 10.00 Fair CLR 68 26.1 69.1 64.9 21% 29.86 1005.4
04 15:51 SW 22 G 35 10.00 Fair and Breezy CLR 68 28 22% 29.86 1005.5
04 14:51 SW 21 G 30 10.00 Fair and Breezy CLR 68 30 24% 29.88 1006.1
04 13:51 SW 23 G 39 10.00 Fair and Breezy CLR 68 30.9 25% 29.88 1006.1
Date Time (mst) Wind (mph) Vis. (mi.) Weather Sky Cond. Air Dwpt Max. Min. Relative Humidity Wind Chill (°F) Heat Index (°F) altimeter (in) sea level (mb) 1 hr 3 hr 6 hr
6 hour
Temperature (ºF) Pressure Precipitation (in)